Главная страница
METAR-TAF:

METAR-TAF

Аэропорты :

Pottstown Limerick Airport

Pottstown, Пенсильвания, США

широта: 40-14-18N, долгота: 075-33-26W, высота над уровнем моря: 89 м

Текущие метеонаблюдения

Эта сводка был подготовлена 13 минут назад, в 14:34 UTC
Штиль
Температура 13°C
Влажность 100%
Давление 1003 hPa
Видимость: 4.0 км
Сплошная облачность на высоте 300 фута
гроза, небольшой дождь, дымка

METAR: KPTW 261434Z AUTO 00000KT 2 1/2SM -TSRA BR OVC003 13/13 A2963 RMK AO2 LTG DSNT SE AND S TSB34 P0009 T01330133

Время: 10:47 (14:47 UTC)


TAF: отсутствует

Метеонаблюдения и прогнозы для более 4000 аэропортов (сводки METAR и TAF).

Имеющиеся станции представлены на карте желтыми и красными точками.

Чтобы увидеть название станции, наведите на нее мышь.

Затем щелкните, чтобы увидеть метеонаблюдения и метеопрогнозы.

Управление картой: чтобы увеличить масштаб, щелкните зеленые кнопки с черным крестиком; чтобы уменьшить масштаб, щелкните зеленую кнопку с тире; для просмотра соседних карт щелкайте зеленые стрелки.


METAR-TAF: